sensor_id;sensor_type;location;lat;lon;timestamp;temperature;humidity
27026;DHT22;14565;48.626;8.978;2023-02-03T00:01:08;4.00;99.90
27026;DHT22;14565;48.626;8.978;2023-02-03T00:03:33;4.00;99.90
27026;DHT22;14565;48.626;8.978;2023-02-03T00:06:00;4.10;99.90
27026;DHT22;14565;48.626;8.978;2023-02-03T00:08:26;4.00;99.90
27026;DHT22;14565;48.626;8.978;2023-02-03T00:10:53;4.00;99.90
27026;DHT22;14565;48.626;8.978;2023-02-03T00:13:19;4.00;99.90
27026;DHT22;14565;48.626;8.978;2023-02-03T00:15:44;4.00;99.90
27026;DHT22;14565;48.626;8.978;2023-02-03T00:18:10;4.00;99.90
27026;DHT22;14565;48.626;8.978;2023-02-03T00:20:36;3.90;99.90
27026;DHT22;14565;48.626;8.978;2023-02-03T00:23:09;3.90;99.90
27026;DHT22;14565;48.626;8.978;2023-02-03T00:25:35;4.00;99.90
27026;DHT22;14565;48.626;8.978;2023-02-03T00:28:01;3.90;99.90
27026;DHT22;14565;48.626;8.978;2023-02-03T00:30:27;3.80;99.90
27026;DHT22;14565;48.626;8.978;2023-02-03T00:32:53;3.80;99.90
27026;DHT22;14565;48.626;8.978;2023-02-03T00:35:19;3.90;99.90
27026;DHT22;14565;48.626;8.978;2023-02-03T00:37:51;3.90;99.90
27026;DHT22;14565;48.626;8.978;2023-02-03T00:40:18;3.90;99.90
27026;DHT22;14565;48.626;8.978;2023-02-03T00:42:44;3.90;99.90
27026;DHT22;14565;48.626;8.978;2023-02-03T00:45:09;3.90;99.90
27026;DHT22;14565;48.626;8.978;2023-02-03T00:47:35;3.80;99.90
27026;DHT22;14565;48.626;8.978;2023-02-03T00:50:01;3.80;99.90
27026;DHT22;14565;48.626;8.978;2023-02-03T00:52:26;3.90;99.90
27026;DHT22;14565;48.626;8.978;2023-02-03T00:54:52;3.80;99.90
27026;DHT22;14565;48.626;8.978;2023-02-03T00:57:17;3.80;99.90
27026;DHT22;14565;48.626;8.978;2023-02-03T00:59:43;3.80;99.90
27026;DHT22;14565;48.626;8.978;2023-02-03T01:02:09;3.80;99.90
27026;DHT22;14565;48.626;8.978;2023-02-03T01:04:34;3.80;99.90
27026;DHT22;14565;48.626;8.978;2023-02-03T01:07:00;3.80;99.90
27026;DHT22;14565;48.626;8.978;2023-02-03T01:09:25;3.80;99.90
27026;DHT22;14565;48.626;8.978;2023-02-03T01:11:51;3.80;99.90
27026;DHT22;14565;48.626;8.978;2023-02-03T01:14:17;3.80;99.90
27026;DHT22;14565;48.626;8.978;2023-02-03T01:16:43;3.80;99.90
27026;DHT22;14565;48.626;8.978;2023-02-03T01:19:08;3.80;99.90
27026;DHT22;14565;48.626;8.978;2023-02-03T01:21:34;3.80;99.90
27026;DHT22;14565;48.626;8.978;2023-02-03T01:24:00;3.80;99.90
27026;DHT22;14565;48.626;8.978;2023-02-03T01:26:26;3.80;99.90
27026;DHT22;14565;48.626;8.978;2023-02-03T01:28:54;3.90;99.90
27026;DHT22;14565;48.626;8.978;2023-02-03T01:31:29;3.90;99.90
27026;DHT22;14565;48.626;8.978;2023-02-03T01:33:56;3.90;99.90
27026;DHT22;14565;48.626;8.978;2023-02-03T01:36:23;3.80;99.90
27026;DHT22;14565;48.626;8.978;2023-02-03T01:38:49;3.80;99.90
27026;DHT22;14565;48.626;8.978;2023-02-03T01:41:19;3.80;99.90
27026;DHT22;14565;48.626;8.978;2023-02-03T01:43:48;3.90;99.90
27026;DHT22;14565;48.626;8.978;2023-02-03T01:46:34;3.90;99.90
27026;DHT22;14565;48.626;8.978;2023-02-03T01:49:23;3.90;99.90
27026;DHT22;14565;48.626;8.978;2023-02-03T01:51:49;4.00;99.90
27026;DHT22;14565;48.626;8.978;2023-02-03T01:54:22;3.90;99.90
27026;DHT22;14565;48.626;8.978;2023-02-03T01:57:04;4.00;99.90
27026;DHT22;14565;48.626;8.978;2023-02-03T01:59:31;4.00;99.90
27026;DHT22;14565;48.626;8.978;2023-02-03T02:01:59;4.00;99.90
27026;DHT22;14565;48.626;8.978;2023-02-03T02:04:41;4.10;99.90
27026;DHT22;14565;48.626;8.978;2023-02-03T02:07:08;4.10;99.90
27026;DHT22;14565;48.626;8.978;2023-02-03T02:09:34;4.10;99.90
27026;DHT22;14565;48.626;8.978;2023-02-03T02:12:00;4.10;99.90
27026;DHT22;14565;48.626;8.978;2023-02-03T02:14:26;4.20;99.90
27026;DHT22;14565;48.626;8.978;2023-02-03T02:16:57;4.20;99.90
27026;DHT22;14565;48.626;8.978;2023-02-03T02:35:53;4.10;99.90
27026;DHT22;14565;48.626;8.978;2023-02-03T02:51:32;4.00;99.90
27026;DHT22;14565;48.626;8.978;2023-02-03T02:54:01;4.10;99.90
27026;DHT22;14565;48.626;8.978;2023-02-03T02:56:29;4.10;99.90
27026;DHT22;14565;48.626;8.978;2023-02-03T02:58:57;4.10;99.90
27026;DHT22;14565;48.626;8.978;2023-02-03T03:01:24;4.10;99.90
27026;DHT22;14565;48.626;8.978;2023-02-03T03:03:50;4.10;99.90
27026;DHT22;14565;48.626;8.978;2023-02-03T03:06:23;4.10;99.90
27026;DHT22;14565;48.626;8.978;2023-02-03T03:09:01;4.00;99.90
27026;DHT22;14565;48.626;8.978;2023-02-03T03:11:31;4.10;99.90
27026;DHT22;14565;48.626;8.978;2023-02-03T03:13:58;4.10;99.90
27026;DHT22;14565;48.626;8.978;2023-02-03T03:16:26;4.10;99.90
27026;DHT22;14565;48.626;8.978;2023-02-03T03:19:07;4.10;99.90
27026;DHT22;14565;48.626;8.978;2023-02-03T03:21:42;4.10;99.90
27026;DHT22;14565;48.626;8.978;2023-02-03T03:24:15;4.10;99.90
27026;DHT22;14565;48.626;8.978;2023-02-03T03:27:09;4.10;99.90
27026;DHT22;14565;48.626;8.978;2023-02-03T03:29:39;4.10;99.90
27026;DHT22;14565;48.626;8.978;2023-02-03T03:32:07;4.10;99.90
27026;DHT22;14565;48.626;8.978;2023-02-03T03:34:33;4.00;99.90
27026;DHT22;14565;48.626;8.978;2023-02-03T03:39:50;3.90;99.90
27026;DHT22;14565;48.626;8.978;2023-02-03T03:45:11;3.90;99.90
27026;DHT22;14565;48.626;8.978;2023-02-03T03:50:08;3.90;99.90
27026;DHT22;14565;48.626;8.978;2023-02-03T03:52:35;4.00;99.90
27026;DHT22;14565;48.626;8.978;2023-02-03T03:55:04;4.00;99.90
27026;DHT22;14565;48.626;8.978;2023-02-03T03:57:53;4.00;99.90
27026;DHT22;14565;48.626;8.978;2023-02-03T04:00:22;4.10;99.90
27026;DHT22;14565;48.626;8.978;2023-02-03T04:02:51;4.00;99.90
27026;DHT22;14565;48.626;8.978;2023-02-03T04:05:19;4.00;99.90
27026;DHT22;14565;48.626;8.978;2023-02-03T04:07:46;4.00;99.90
27026;DHT22;14565;48.626;8.978;2023-02-03T04:12:46;4.00;99.90
27026;DHT22;14565;48.626;8.978;2023-02-03T04:15:12;4.00;99.90
27026;DHT22;14565;48.626;8.978;2023-02-03T04:17:38;4.00;99.90
27026;DHT22;14565;48.626;8.978;2023-02-03T04:20:04;4.10;99.90
27026;DHT22;14565;48.626;8.978;2023-02-03T04:22:30;4.10;99.90
27026;DHT22;14565;48.626;8.978;2023-02-03T04:24:56;4.10;99.90
27026;DHT22;14565;48.626;8.978;2023-02-03T04:27:24;4.00;99.90
27026;DHT22;14565;48.626;8.978;2023-02-03T04:29:50;4.00;99.90
27026;DHT22;14565;48.626;8.978;2023-02-03T04:32:15;4.10;99.90
27026;DHT22;14565;48.626;8.978;2023-02-03T04:34:41;4.10;99.90
27026;DHT22;14565;48.626;8.978;2023-02-03T04:37:07;4.10;99.90
27026;DHT22;14565;48.626;8.978;2023-02-03T04:39:33;4.00;99.90
27026;DHT22;14565;48.626;8.978;2023-02-03T04:41:58;4.00;99.90
27026;DHT22;14565;48.626;8.978;2023-02-03T04:44:24;4.00;99.90
27026;DHT22;14565;48.626;8.978;2023-02-03T04:46:49;4.10;99.90
27026;DHT22;14565;48.626;8.978;2023-02-03T04:49:15;4.00;99.90
27026;DHT22;14565;48.626;8.978;2023-02-03T04:51:42;4.00;99.90
27026;DHT22;14565;48.626;8.978;2023-02-03T04:54:09;4.00;99.90
27026;DHT22;14565;48.626;8.978;2023-02-03T04:56:36;4.10;99.90
27026;DHT22;14565;48.626;8.978;2023-02-03T04:59:02;4.10;99.90
27026;DHT22;14565;48.626;8.978;2023-02-03T05:01:28;4.10;99.90
27026;DHT22;14565;48.626;8.978;2023-02-03T05:03:53;4.00;99.90
27026;DHT22;14565;48.626;8.978;2023-02-03T05:06:27;4.10;99.90
27026;DHT22;14565;48.626;8.978;2023-02-03T05:08:57;4.10;99.90
27026;DHT22;14565;48.626;8.978;2023-02-03T05:11:23;4.00;99.90
27026;DHT22;14565;48.626;8.978;2023-02-03T05:13:49;4.10;99.90
27026;DHT22;14565;48.626;8.978;2023-02-03T05:16:15;4.10;99.90
27026;DHT22;14565;48.626;8.978;2023-02-03T05:18:41;4.00;99.90
27026;DHT22;14565;48.626;8.978;2023-02-03T05:21:07;4.10;99.90
27026;DHT22;14565;48.626;8.978;2023-02-03T05:23:33;4.10;99.90
27026;DHT22;14565;48.626;8.978;2023-02-03T05:25:58;4.10;99.90
27026;DHT22;14565;48.626;8.978;2023-02-03T05:28:24;4.10;99.90
27026;DHT22;14565;48.626;8.978;2023-02-03T05:30:50;4.10;99.90
27026;DHT22;14565;48.626;8.978;2023-02-03T05:33:16;4.10;99.90
27026;DHT22;14565;48.626;8.978;2023-02-03T05:35:42;4.10;99.90
27026;DHT22;14565;48.626;8.978;2023-02-03T05:38:07;4.10;99.90
27026;DHT22;14565;48.626;8.978;2023-02-03T05:40:33;4.10;99.90
27026;DHT22;14565;48.626;8.978;2023-02-03T05:43:17;4.10;99.90
27026;DHT22;14565;48.626;8.978;2023-02-03T05:45:43;4.20;99.90
27026;DHT22;14565;48.626;8.978;2023-02-03T05:48:09;4.10;99.90
27026;DHT22;14565;48.626;8.978;2023-02-03T05:50:35;4.10;99.90
27026;DHT22;14565;48.626;8.978;2023-02-03T05:53:02;4.10;99.90
27026;DHT22;14565;48.626;8.978;2023-02-03T05:55:30;4.10;99.90
27026;DHT22;14565;48.626;8.978;2023-02-03T05:57:56;4.10;99.90
27026;DHT22;14565;48.626;8.978;2023-02-03T06:00:22;4.10;99.90
27026;DHT22;14565;48.626;8.978;2023-02-03T06:02:56;4.10;99.90
27026;DHT22;14565;48.626;8.978;2023-02-03T06:05:23;4.10;99.90
27026;DHT22;14565;48.626;8.978;2023-02-03T06:07:49;4.10;99.90
27026;DHT22;14565;48.626;8.978;2023-02-03T06:10:15;4.10;99.90
27026;DHT22;14565;48.626;8.978;2023-02-03T06:12:41;4.10;99.90
27026;DHT22;14565;48.626;8.978;2023-02-03T06:15:08;4.10;99.90
27026;DHT22;14565;48.626;8.978;2023-02-03T06:17:34;4.10;99.90
27026;DHT22;14565;48.626;8.978;2023-02-03T06:20:02;4.20;99.90
27026;DHT22;14565;48.626;8.978;2023-02-03T06:22:28;4.10;99.90
27026;DHT22;14565;48.626;8.978;2023-02-03T06:24:53;4.10;99.90
27026;DHT22;14565;48.626;8.978;2023-02-03T06:27:19;4.10;99.90
27026;DHT22;14565;48.626;8.978;2023-02-03T06:29:45;4.10;99.90
27026;DHT22;14565;48.626;8.978;2023-02-03T06:32:10;4.10;99.90
27026;DHT22;14565;48.626;8.978;2023-02-03T06:34:36;4.00;99.90
27026;DHT22;14565;48.626;8.978;2023-02-03T06:37:01;3.90;99.90
27026;DHT22;14565;48.626;8.978;2023-02-03T06:39:27;4.00;99.90
27026;DHT22;14565;48.626;8.978;2023-02-03T06:41:53;4.00;99.90
27026;DHT22;14565;48.626;8.978;2023-02-03T06:44:20;4.00;99.90
27026;DHT22;14565;48.626;8.978;2023-02-03T06:46:46;4.00;99.90
27026;DHT22;14565;48.626;8.978;2023-02-03T06:49:11;4.00;99.90
27026;DHT22;14565;48.626;8.978;2023-02-03T06:51:37;3.90;99.90
27026;DHT22;14565;48.626;8.978;2023-02-03T06:54:02;4.00;99.90
27026;DHT22;14565;48.626;8.978;2023-02-03T06:56:29;4.00;99.90
27026;DHT22;14565;48.626;8.978;2023-02-03T06:58:55;3.90;99.90
27026;DHT22;14565;48.626;8.978;2023-02-03T07:01:22;3.90;99.90
27026;DHT22;14565;48.626;8.978;2023-02-03T07:03:48;3.90;99.90
27026;DHT22;14565;48.626;8.978;2023-02-03T07:06:14;3.90;99.90
27026;DHT22;14565;48.626;8.978;2023-02-03T07:08:40;3.90;99.90
27026;DHT22;14565;48.626;8.978;2023-02-03T07:11:06;3.90;99.90
27026;DHT22;14565;48.626;8.978;2023-02-03T07:13:32;3.90;99.90
27026;DHT22;14565;48.626;8.978;2023-02-03T07:15:57;3.90;99.90
27026;DHT22;14565;48.626;8.978;2023-02-03T07:18:23;3.90;99.90
27026;DHT22;14565;48.626;8.978;2023-02-03T07:20:50;3.90;99.90
27026;DHT22;14565;48.626;8.978;2023-02-03T07:23:17;3.90;99.90
27026;DHT22;14565;48.626;8.978;2023-02-03T07:25:43;3.80;99.90
27026;DHT22;14565;48.626;8.978;2023-02-03T07:28:08;3.90;99.90
27026;DHT22;14565;48.626;8.978;2023-02-03T07:30:34;3.90;99.90
27026;DHT22;14565;48.626;8.978;2023-02-03T07:33:00;3.90;99.90
27026;DHT22;14565;48.626;8.978;2023-02-03T07:35:25;4.00;99.90
27026;DHT22;14565;48.626;8.978;2023-02-03T07:37:52;3.90;99.90
27026;DHT22;14565;48.626;8.978;2023-02-03T07:40:17;3.90;99.90
27026;DHT22;14565;48.626;8.978;2023-02-03T07:42:45;3.90;99.90
27026;DHT22;14565;48.626;8.978;2023-02-03T07:45:13;4.00;99.90
27026;DHT22;14565;48.626;8.978;2023-02-03T07:47:40;4.10;99.90
27026;DHT22;14565;48.626;8.978;2023-02-03T07:50:06;4.00;99.90
27026;DHT22;14565;48.626;8.978;2023-02-03T07:52:32;4.00;99.90
27026;DHT22;14565;48.626;8.978;2023-02-03T07:54:57;4.00;99.90
27026;DHT22;14565;48.626;8.978;2023-02-03T07:57:23;4.00;99.90
27026;DHT22;14565;48.626;8.978;2023-02-03T07:59:49;4.10;99.90
27026;DHT22;14565;48.626;8.978;2023-02-03T08:02:14;4.10;99.90
27026;DHT22;14565;48.626;8.978;2023-02-03T08:04:40;4.10;99.90
27026;DHT22;14565;48.626;8.978;2023-02-03T08:07:06;4.20;99.90
27026;DHT22;14565;48.626;8.978;2023-02-03T08:09:31;4.00;99.90
27026;DHT22;14565;48.626;8.978;2023-02-03T08:11:57;4.10;99.90
27026;DHT22;14565;48.626;8.978;2023-02-03T08:14:22;4.10;99.90
27026;DHT22;14565;48.626;8.978;2023-02-03T08:16:48;4.10;99.90
27026;DHT22;14565;48.626;8.978;2023-02-03T08:19:14;4.10;99.90
27026;DHT22;14565;48.626;8.978;2023-02-03T08:21:39;4.20;99.90
27026;DHT22;14565;48.626;8.978;2023-02-03T08:24:05;4.20;99.90
27026;DHT22;14565;48.626;8.978;2023-02-03T08:26:30;4.20;99.90
27026;DHT22;14565;48.626;8.978;2023-02-03T08:28:56;4.20;99.90
27026;DHT22;14565;48.626;8.978;2023-02-03T08:31:22;4.30;99.90
27026;DHT22;14565;48.626;8.978;2023-02-03T08:33:48;4.20;99.90
27026;DHT22;14565;48.626;8.978;2023-02-03T08:36:13;4.40;99.90
27026;DHT22;14565;48.626;8.978;2023-02-03T08:38:40;4.40;99.90
27026;DHT22;14565;48.626;8.978;2023-02-03T08:41:15;4.40;99.90
27026;DHT22;14565;48.626;8.978;2023-02-03T08:43:43;4.40;99.90
27026;DHT22;14565;48.626;8.978;2023-02-03T08:46:10;4.50;99.90
27026;DHT22;14565;48.626;8.978;2023-02-03T08:48:36;4.50;99.90
27026;DHT22;14565;48.626;8.978;2023-02-03T08:51:07;4.50;99.90
27026;DHT22;14565;48.626;8.978;2023-02-03T08:53:33;4.60;99.90
27026;DHT22;14565;48.626;8.978;2023-02-03T08:55:59;4.60;99.90
27026;DHT22;14565;48.626;8.978;2023-02-03T08:58:28;4.60;99.90
27026;DHT22;14565;48.626;8.978;2023-02-03T09:00:53;4.60;99.90
27026;DHT22;14565;48.626;8.978;2023-02-03T09:03:19;4.70;99.90
27026;DHT22;14565;48.626;8.978;2023-02-03T09:05:45;4.70;99.90
27026;DHT22;14565;48.626;8.978;2023-02-03T09:08:11;4.70;99.90
27026;DHT22;14565;48.626;8.978;2023-02-03T09:10:36;4.60;99.90
27026;DHT22;14565;48.626;8.978;2023-02-03T09:13:02;4.70;99.90
27026;DHT22;14565;48.626;8.978;2023-02-03T09:15:28;4.80;99.90
27026;DHT22;14565;48.626;8.978;2023-02-03T09:17:53;4.80;99.90
27026;DHT22;14565;48.626;8.978;2023-02-03T09:20:20;4.90;99.90
27026;DHT22;14565;48.626;8.978;2023-02-03T09:22:47;4.90;99.90
27026;DHT22;14565;48.626;8.978;2023-02-03T09:25:13;4.80;99.90
27026;DHT22;14565;48.626;8.978;2023-02-03T09:27:40;5.00;99.90
27026;DHT22;14565;48.626;8.978;2023-02-03T09:30:06;5.10;99.90
27026;DHT22;14565;48.626;8.978;2023-02-03T09:32:32;5.10;99.90
27026;DHT22;14565;48.626;8.978;2023-02-03T09:34:58;5.30;99.90
27026;DHT22;14565;48.626;8.978;2023-02-03T09:37:24;5.30;99.90
27026;DHT22;14565;48.626;8.978;2023-02-03T09:39:49;5.30;99.90
27026;DHT22;14565;48.626;8.978;2023-02-03T09:42:46;5.40;99.90
27026;DHT22;14565;48.626;8.978;2023-02-03T09:45:27;5.40;99.90
27026;DHT22;14565;48.626;8.978;2023-02-03T09:47:58;5.50;99.90
27026;DHT22;14565;48.626;8.978;2023-02-03T09:50:27;5.60;99.90
27026;DHT22;14565;48.626;8.978;2023-02-03T09:52:54;5.60;99.90
27026;DHT22;14565;48.626;8.978;2023-02-03T09:55:42;5.60;99.90
27026;DHT22;14565;48.626;8.978;2023-02-03T09:58:17;5.80;99.90
27026;DHT22;14565;48.626;8.978;2023-02-03T10:01:03;5.90;99.90
27026;DHT22;14565;48.626;8.978;2023-02-03T10:04:19;5.90;99.90
27026;DHT22;14565;48.626;8.978;2023-02-03T10:06:52;6.00;99.90
27026;DHT22;14565;48.626;8.978;2023-02-03T10:18:23;6.00;99.90
27026;DHT22;14565;48.626;8.978;2023-02-03T10:20:53;5.90;99.90
27026;DHT22;14565;48.626;8.978;2023-02-03T10:23:28;5.90;99.90
27026;DHT22;14565;48.626;8.978;2023-02-03T10:25:56;6.00;99.90
27026;DHT22;14565;48.626;8.978;2023-02-03T10:28:30;5.90;99.90
27026;DHT22;14565;48.626;8.978;2023-02-03T10:30:58;5.80;99.90
27026;DHT22;14565;48.626;8.978;2023-02-03T10:33:26;5.90;99.90
27026;DHT22;14565;48.626;8.978;2023-02-03T10:36:03;5.90;99.90
27026;DHT22;14565;48.626;8.978;2023-02-03T10:41:03;5.80;99.90
27026;DHT22;14565;48.626;8.978;2023-02-03T10:43:30;6.00;99.90
27026;DHT22;14565;48.626;8.978;2023-02-03T10:46:15;6.10;99.90
27026;DHT22;14565;48.626;8.978;2023-02-03T10:48:41;6.10;99.90
27026;DHT22;14565;48.626;8.978;2023-02-03T10:54:45;6.10;99.90
27026;DHT22;14565;48.626;8.978;2023-02-03T10:57:13;6.10;99.90
27026;DHT22;14565;48.626;8.978;2023-02-03T10:59:44;6.00;99.90
27026;DHT22;14565;48.626;8.978;2023-02-03T11:02:26;6.00;99.90
27026;DHT22;14565;48.626;8.978;2023-02-03T11:07:42;5.90;99.90
27026;DHT22;14565;48.626;8.978;2023-02-03T11:10:36;5.90;99.90
27026;DHT22;14565;48.626;8.978;2023-02-03T11:13:24;5.70;99.90
27026;DHT22;14565;48.626;8.978;2023-02-03T11:16:03;5.80;99.90
27026;DHT22;14565;48.626;8.978;2023-02-03T11:26:48;6.10;99.90
27026;DHT22;14565;48.626;8.978;2023-02-03T11:29:23;6.60;99.90
27026;DHT22;14565;48.626;8.978;2023-02-03T11:31:51;6.80;99.90
27026;DHT22;14565;48.626;8.978;2023-02-03T11:34:23;6.80;99.90
27026;DHT22;14565;48.626;8.978;2023-02-03T11:36:50;6.70;99.90
27026;DHT22;14565;48.626;8.978;2023-02-03T11:39:27;6.70;99.90
27026;DHT22;14565;48.626;8.978;2023-02-03T11:41:53;6.80;99.90
27026;DHT22;14565;48.626;8.978;2023-02-03T11:44:24;6.80;99.90
27026;DHT22;14565;48.626;8.978;2023-02-03T11:47:00;6.90;99.90
27026;DHT22;14565;48.626;8.978;2023-02-03T11:49:36;7.00;99.90
27026;DHT22;14565;48.626;8.978;2023-02-03T12:03:02;6.20;99.90
27026;DHT22;14565;48.626;8.978;2023-02-03T12:08:19;6.30;99.90
27026;DHT22;14565;48.626;8.978;2023-02-03T12:14:11;6.20;99.90
27026;DHT22;14565;48.626;8.978;2023-02-03T12:17:10;6.20;99.90
27026;DHT22;14565;48.626;8.978;2023-02-03T12:30:51;6.40;99.90
27026;DHT22;14565;48.626;8.978;2023-02-03T12:33:19;6.40;99.90
27026;DHT22;14565;48.626;8.978;2023-02-03T12:36:15;6.40;99.90
27026;DHT22;14565;48.626;8.978;2023-02-03T12:39:00;6.40;99.90
27026;DHT22;14565;48.626;8.978;2023-02-03T12:41:41;6.50;99.90
27026;DHT22;14565;48.626;8.978;2023-02-03T12:47:11;6.40;99.90
27026;DHT22;14565;48.626;8.978;2023-02-03T12:52:54;6.40;99.90
27026;DHT22;14565;48.626;8.978;2023-02-03T12:55:52;6.40;99.90
27026;DHT22;14565;48.626;8.978;2023-02-03T12:58:40;6.30;99.90
27026;DHT22;14565;48.626;8.978;2023-02-03T13:01:18;6.20;99.90
27026;DHT22;14565;48.626;8.978;2023-02-03T13:03:49;6.20;99.90
27026;DHT22;14565;48.626;8.978;2023-02-03T13:12:07;6.00;99.90
27026;DHT22;14565;48.626;8.978;2023-02-03T13:15:04;6.00;99.90
27026;DHT22;14565;48.626;8.978;2023-02-03T13:17:42;6.00;99.90
27026;DHT22;14565;48.626;8.978;2023-02-03T13:20:19;6.00;99.90
27026;DHT22;14565;48.626;8.978;2023-02-03T13:22:51;6.00;99.90
27026;DHT22;14565;48.626;8.978;2023-02-03T13:25:45;6.10;99.90
27026;DHT22;14565;48.626;8.978;2023-02-03T13:28:17;6.20;99.90
27026;DHT22;14565;48.626;8.978;2023-02-03T13:44:18;6.30;99.90
27026;DHT22;14565;48.626;8.978;2023-02-03T13:46:50;6.20;99.90
27026;DHT22;14565;48.626;8.978;2023-02-03T13:49:44;6.20;99.90
27026;DHT22;14565;48.626;8.978;2023-02-03T13:55:00;6.30;99.90
27026;DHT22;14565;48.626;8.978;2023-02-03T13:57:34;6.30;99.90
27026;DHT22;14565;48.626;8.978;2023-02-03T14:00:05;6.30;99.90
27026;DHT22;14565;48.626;8.978;2023-02-03T14:02:51;6.30;99.90
27026;DHT22;14565;48.626;8.978;2023-02-03T14:05:37;6.30;99.90
27026;DHT22;14565;48.626;8.978;2023-02-03T14:17:01;6.20;99.90
27026;DHT22;14565;48.626;8.978;2023-02-03T14:22:07;6.20;99.90
27026;DHT22;14565;48.626;8.978;2023-02-03T14:24:38;6.10;99.90
27026;DHT22;14565;48.626;8.978;2023-02-03T14:27:25;6.00;99.90
27026;DHT22;14565;48.626;8.978;2023-02-03T14:30:12;6.00;99.90
27026;DHT22;14565;48.626;8.978;2023-02-03T14:35:22;6.10;99.90
27026;DHT22;14565;48.626;8.978;2023-02-03T14:38:09;6.10;99.90
27026;DHT22;14565;48.626;8.978;2023-02-03T14:40:58;6.10;99.90
27026;DHT22;14565;48.626;8.978;2023-02-03T14:52:22;6.00;99.90
27026;DHT22;14565;48.626;8.978;2023-02-03T14:54:58;5.90;99.90
27026;DHT22;14565;48.626;8.978;2023-02-03T15:05:39;5.90;99.90
27026;DHT22;14565;48.626;8.978;2023-02-03T15:10:58;5.80;99.90
27026;DHT22;14565;48.626;8.978;2023-02-03T15:13:29;5.80;99.90
27026;DHT22;14565;48.626;8.978;2023-02-03T15:15:57;5.80;99.90
27026;DHT22;14565;48.626;8.978;2023-02-03T15:18:33;5.80;99.90
27026;DHT22;14565;48.626;8.978;2023-02-03T15:21:00;5.60;99.90
27026;DHT22;14565;48.626;8.978;2023-02-03T15:23:38;5.70;99.90
27026;DHT22;14565;48.626;8.978;2023-02-03T15:26:26;5.70;99.90
27026;DHT22;14565;48.626;8.978;2023-02-03T15:31:37;5.70;99.90
27026;DHT22;14565;48.626;8.978;2023-02-03T15:42:20;5.60;99.90
27026;DHT22;14565;48.626;8.978;2023-02-03T15:44:58;5.70;99.90
27026;DHT22;14565;48.626;8.978;2023-02-03T15:47:30;5.60;99.90
27026;DHT22;14565;48.626;8.978;2023-02-03T15:50:31;5.70;99.90
27026;DHT22;14565;48.626;8.978;2023-02-03T15:53:03;5.60;99.90
27026;DHT22;14565;48.626;8.978;2023-02-03T15:55:37;5.60;99.90
27026;DHT22;14565;48.626;8.978;2023-02-03T15:58:19;5.60;99.90
27026;DHT22;14565;48.626;8.978;2023-02-03T16:00:51;5.60;99.90
27026;DHT22;14565;48.626;8.978;2023-02-03T16:03:21;5.70;99.90
27026;DHT22;14565;48.626;8.978;2023-02-03T16:05:49;5.60;99.90
27026;DHT22;14565;48.626;8.978;2023-02-03T16:10:51;5.60;99.90
27026;DHT22;14565;48.626;8.978;2023-02-03T16:13:23;5.60;99.90
27026;DHT22;14565;48.626;8.978;2023-02-03T16:16:20;5.60;99.90
27026;DHT22;14565;48.626;8.978;2023-02-03T16:18:55;5.60;99.90
27026;DHT22;14565;48.626;8.978;2023-02-03T16:21:29;5.60;99.90
27026;DHT22;14565;48.626;8.978;2023-02-03T16:23:55;5.50;99.90
27026;DHT22;14565;48.626;8.978;2023-02-03T16:26:23;5.50;99.90
27026;DHT22;14565;48.626;8.978;2023-02-03T16:29:10;5.50;99.90
27026;DHT22;14565;48.626;8.978;2023-02-03T16:31:55;5.50;99.90
27026;DHT22;14565;48.626;8.978;2023-02-03T16:34:40;5.40;99.90
27026;DHT22;14565;48.626;8.978;2023-02-03T16:37:30;5.50;99.90
27026;DHT22;14565;48.626;8.978;2023-02-03T16:40:20;5.50;99.90
27026;DHT22;14565;48.626;8.978;2023-02-03T16:43:12;5.50;99.90
27026;DHT22;14565;48.626;8.978;2023-02-03T16:45:58;5.40;99.90
27026;DHT22;14565;48.626;8.978;2023-02-03T16:48:42;5.40;99.90
27026;DHT22;14565;48.626;8.978;2023-02-03T16:51:39;5.40;99.90
27026;DHT22;14565;48.626;8.978;2023-02-03T16:54:08;5.40;99.90
27026;DHT22;14565;48.626;8.978;2023-02-03T16:56:34;5.40;99.90
27026;DHT22;14565;48.626;8.978;2023-02-03T16:58:59;5.40;99.90
27026;DHT22;14565;48.626;8.978;2023-02-03T17:01:25;5.40;99.90
27026;DHT22;14565;48.626;8.978;2023-02-03T17:03:51;5.40;99.90
27026;DHT22;14565;48.626;8.978;2023-02-03T17:06:16;5.40;99.90
27026;DHT22;14565;48.626;8.978;2023-02-03T17:08:42;5.50;99.90
27026;DHT22;14565;48.626;8.978;2023-02-03T17:11:19;5.50;99.90
27026;DHT22;14565;48.626;8.978;2023-02-03T17:13:46;5.40;99.90
27026;DHT22;14565;48.626;8.978;2023-02-03T17:18:41;5.50;99.90
27026;DHT22;14565;48.626;8.978;2023-02-03T17:21:10;5.40;99.90
27026;DHT22;14565;48.626;8.978;2023-02-03T17:23:37;5.50;99.90
27026;DHT22;14565;48.626;8.978;2023-02-03T17:26:03;5.50;99.90
27026;DHT22;14565;48.626;8.978;2023-02-03T17:28:29;5.50;99.90
27026;DHT22;14565;48.626;8.978;2023-02-03T17:30:59;5.50;99.90
27026;DHT22;14565;48.626;8.978;2023-02-03T17:33:27;5.50;99.90
27026;DHT22;14565;48.626;8.978;2023-02-03T17:38:29;5.50;99.90
27026;DHT22;14565;48.626;8.978;2023-02-03T17:40:55;5.50;99.90
27026;DHT22;14565;48.626;8.978;2023-02-03T17:43:21;5.50;99.90
27026;DHT22;14565;48.626;8.978;2023-02-03T17:45:46;5.50;99.90
27026;DHT22;14565;48.626;8.978;2023-02-03T17:48:12;5.40;99.90
27026;DHT22;14565;48.626;8.978;2023-02-03T17:50:38;5.40;99.90
27026;DHT22;14565;48.626;8.978;2023-02-03T17:53:03;5.50;99.90
27026;DHT22;14565;48.626;8.978;2023-02-03T17:55:30;5.50;99.90
27026;DHT22;14565;48.626;8.978;2023-02-03T17:57:56;5.50;99.90
27026;DHT22;14565;48.626;8.978;2023-02-03T18:00:22;5.50;99.90
27026;DHT22;14565;48.626;8.978;2023-02-03T18:02:49;5.50;99.90
27026;DHT22;14565;48.626;8.978;2023-02-03T18:05:15;5.50;99.90
27026;DHT22;14565;48.626;8.978;2023-02-03T18:07:41;5.50;99.90
27026;DHT22;14565;48.626;8.978;2023-02-03T18:10:07;5.50;99.90
27026;DHT22;14565;48.626;8.978;2023-02-03T18:12:33;5.50;99.90
27026;DHT22;14565;48.626;8.978;2023-02-03T18:14:59;5.50;99.90
27026;DHT22;14565;48.626;8.978;2023-02-03T18:17:24;5.40;99.90
27026;DHT22;14565;48.626;8.978;2023-02-03T18:19:50;5.40;99.90
27026;DHT22;14565;48.626;8.978;2023-02-03T18:22:16;5.40;99.90
27026;DHT22;14565;48.626;8.978;2023-02-03T18:24:41;5.40;99.90
27026;DHT22;14565;48.626;8.978;2023-02-03T18:27:10;5.30;99.90
27026;DHT22;14565;48.626;8.978;2023-02-03T18:29:43;5.50;99.90
27026;DHT22;14565;48.626;8.978;2023-02-03T18:32:09;5.50;99.90
27026;DHT22;14565;48.626;8.978;2023-02-03T18:34:35;5.50;99.90
27026;DHT22;14565;48.626;8.978;2023-02-03T18:37:00;5.50;99.90
27026;DHT22;14565;48.626;8.978;2023-02-03T18:39:26;5.40;99.90
27026;DHT22;14565;48.626;8.978;2023-02-03T18:41:52;5.50;99.90
27026;DHT22;14565;48.626;8.978;2023-02-03T18:44:17;5.50;99.90
27026;DHT22;14565;48.626;8.978;2023-02-03T18:46:43;5.50;99.90
27026;DHT22;14565;48.626;8.978;2023-02-03T18:49:10;5.40;99.90
27026;DHT22;14565;48.626;8.978;2023-02-03T18:51:36;5.50;99.90
27026;DHT22;14565;48.626;8.978;2023-02-03T18:54:02;5.50;99.90
27026;DHT22;14565;48.626;8.978;2023-02-03T18:56:29;5.40;99.90
27026;DHT22;14565;48.626;8.978;2023-02-03T18:59:02;5.50;99.90